Time;durP1;ratioP1;P1;durP2;ratioP2;P2;SDS_P1;SDS_P2;PMS_P1;PMS_P2;Temp;Humidity;BMP_temperature;BMP_pressure;BME280_temperature;BME280_humidity;BME280_pressure;Samples;Min_cycle;Max_cycle;Signal;HPM_P1;HPM_P2
2021/07/22 00:00:44;;;;;;;8.73;8.03;;;;;;;18.73;72.71;101475.22;5033075;28;20231;-77
2021/07/22 00:03:10;;;;;;;9.33;8.60;;;;;;;18.46;72.44;101493.78;5033061;28;20208;-77
2021/07/22 00:05:37;;;;;;;8.73;8.03;;;;;;;18.50;72.66;101478.69;5033108;28;20208;-77
2021/07/22 00:08:09;;;;;;;8.97;8.23;;;;;;;18.57;74.29;101413.19;5033083;28;20235;-77
2021/07/22 00:10:35;;;;;;;9.00;8.27;;;;;;;18.58;74.38;101397.28;5033061;28;20199;-76
2021/07/22 00:13:03;;;;;;;8.63;8.00;;;;;;;18.59;74.46;101403.44;5033068;28;20216;-77
2021/07/22 00:15:29;;;;;;;9.33;8.57;;;;;;;18.56;74.75;101393.84;5033217;28;20257;-77
2021/07/22 00:17:55;;;;;;;8.97;7.83;;;;;;;18.54;74.55;101390.38;5032940;28;20231;-78
2021/07/22 00:20:22;;;;;;;9.33;8.60;;;;;;;18.54;74.05;101414.19;5032548;28;20236;-77
2021/07/22 00:22:48;;;;;;;8.23;7.53;;;;;;;18.51;74.23;101408.16;5032696;28;20215;-77
2021/07/22 00:25:16;;;;;;;8.50;7.80;;;;;;;18.46;74.13;101418.91;5032810;28;20264;-76
2021/07/22 00:27:42;;;;;;;8.90;8.10;;;;;;;18.48;74.24;101398.56;5032890;28;20231;-77
2021/07/22 00:30:10;;;;;;;8.00;7.40;;;;;;;18.51;74.11;101418.72;5032771;28;20200;-77
2021/07/22 00:32:36;;;;;;;8.67;8.03;;;;;;;18.48;74.21;101422.34;5032184;28;20701;-77
2021/07/22 00:35:03;;;;;;;8.17;7.57;;;;;;;18.49;74.58;101402.06;5032416;28;20213;-77
2021/07/22 00:37:30;;;;;;;10.03;9.13;;;;;;;18.43;74.58;101392.56;5032824;28;20278;-77
2021/07/22 00:39:56;;;;;;;8.77;8.00;;;;;;;18.40;75.17;101364.47;5032494;28;20266;-77
2021/07/22 00:42:24;;;;;;;8.77;7.87;;;;;;;18.43;75.20;101364.38;5032698;28;20204;-75
2021/07/22 00:44:50;;;;;;;8.73;8.03;;;;;;;18.44;75.16;101367.84;5032252;28;20208;-76
2021/07/22 00:47:16;;;;;;;8.60;7.80;;;;;;;18.42;74.65;101394.34;5032438;28;20249;-77
2021/07/22 00:49:44;;;;;;;8.53;7.93;;;;;;;18.43;74.78;101376.69;5032149;28;20213;-77
2021/07/22 00:52:11;;;;;;;9.17;8.33;;;;;;;18.43;75.53;101367.00;5032081;28;20374;-77
2021/07/22 00:54:37;;;;;;;10.17;8.43;;;;;;;18.44;75.26;101363.44;5031706;28;20206;-77
2021/07/22 00:57:04;;;;;;;8.60;7.90;;;;;;;18.44;74.65;101383.72;5032489;28;20221;-78
2021/07/22 00:59:32;;;;;;;9.27;8.57;;;;;;;18.43;73.91;101421.63;5032129;28;20577;-77
2021/07/22 01:01:58;;;;;;;8.37;7.67;;;;;;;18.32;73.33;101453.75;5032011;28;20232;-77
2021/07/22 01:04:24;;;;;;;8.77;7.97;;;;;;;18.30;73.84;101421.22;5032091;28;20211;-76
2021/07/22 01:06:51;;;;;;;11.23;8.13;;;;;;;18.33;74.73;101397.31;5032059;28;20231;-76
2021/07/22 01:09:17;;;;;;;10.10;8.03;;;;;;;18.33;75.17;101364.75;5032209;28;20217;-77
2021/07/22 01:11:43;;;;;;;11.13;8.20;;;;;;;18.19;73.99;101407.50;5032360;28;20662;-78
2021/07/22 01:14:10;;;;;;;9.40;8.60;;;;;;;17.99;75.37;101360.66;5031743;28;20206;-77
2021/07/22 01:16:37;;;;;;;8.80;8.10;;;;;;;17.90;76.01;101340.72;5032169;28;20261;-77
2021/07/22 01:19:04;;;;;;;9.73;8.93;;;;;;;17.88;76.36;101329.34;5031855;28;20209;-76
2021/07/22 01:21:32;;;;;;;9.53;8.77;;;;;;;17.88;76.45;101321.44;5031954;28;20231;-77
2021/07/22 01:23:59;;;;;;;8.90;8.30;;;;;;;17.93;76.61;101310.69;5031976;28;20264;-77
2021/07/22 01:26:25;;;;;;;9.23;8.53;;;;;;;18.05;76.37;101310.25;5031978;28;20738;-77
2021/07/22 01:28:51;;;;;;;9.10;8.40;;;;;;;18.10;77.21;101292.44;5031867;28;20215;-77
2021/07/22 01:31:23;;;;;;;8.60;7.93;;;;;;;18.15;76.76;101301.06;5032084;28;20235;-77
2021/07/22 01:33:50;;;;;;;10.73;9.63;;;;;;;18.02;75.87;101348.22;5031484;28;20211;-76
2021/07/22 01:36:22;;;;;;;11.17;10.03;;;;;;;17.64;77.56;101296.69;5032404;28;20214;-77
2021/07/22 01:38:50;;;;;;;12.43;10.97;;;;;;;17.51;78.49;101254.00;5032593;28;20208;-76
2021/07/22 01:41:16;;;;;;;10.77;9.97;;;;;;;17.37;78.99;101240.44;5032366;28;20226;-77
2021/07/22 01:43:43;;;;;;;11.27;10.27;;;;;;;17.26;79.88;101215.28;5031942;28;20264;-77
2021/07/22 01:46:09;;;;;;;9.77;8.97;;;;;;;17.31;79.92;101190.50;5032451;28;20626;-77
2021/07/22 01:48:36;;;;;;;10.13;9.23;;;;;;;17.39;80.31;101176.13;5032150;28;20227;-77
2021/07/22 01:51:02;;;;;;;9.87;8.87;;;;;;;17.54;80.49;101158.00;5032615;28;20198;-77
2021/07/22 01:53:28;;;;;;;10.07;9.10;;;;;;;17.43;80.14;101171.59;5032380;28;20673;-77
2021/07/22 01:55:56;;;;;;;9.93;9.10;;;;;;;17.33;80.96;101149.09;5033069;28;20355;-77
2021/07/22 01:58:22;;;;;;;10.43;9.53;;;;;;;17.41;81.08;101132.06;5025220;28;20288;-77
2021/07/22 02:00:49;;;;;;;10.37;9.57;;;;;;;17.50;80.57;101153.75;5034235;28;20257;-77
2021/07/22 02:03:15;;;;;;;11.27;10.37;;;;;;;17.55;80.30;101167.66;5035249;28;20232;-76
2021/07/22 02:05:41;;;;;;;10.63;9.73;;;;;;;17.65;79.95;101179.59;5037380;28;20205;-76
2021/07/22 02:08:08;;;;;;;10.57;9.57;;;;;;;17.76;79.75;101200.31;5042480;28;20759;-77
2021/07/22 02:10:34;;;;;;;10.73;9.83;;;;;;;17.87;79.43;101211.38;5035467;28;20226;-77
2021/07/22 02:13:02;;;;;;;10.53;9.60;;;;;;;17.93;79.07;101208.53;5035239;28;20213;-77
2021/07/22 02:15:28;;;;;;;8.90;8.20;;;;;;;17.99;79.41;101203.00;5035485;28;20207;-77
2021/07/22 02:17:54;;;;;;;9.73;8.93;;;;;;;17.98;79.72;101205.72;5035203;28;20236;-77
2021/07/22 02:20:21;;;;;;;10.03;9.17;;;;;;;17.99;79.37;101218.00;5035307;28;20242;-77
2021/07/22 02:22:47;;;;;;;10.00;9.10;;;;;;;18.00;79.42;101217.09;5035231;28;20277;-76
2021/07/22 02:25:14;;;;;;;9.73;9.00;;;;;;;17.99;79.71;101203.00;5035360;28;20211;-77
2021/07/22 02:27:40;;;;;;;9.87;9.00;;;;;;;18.00;79.20;101217.94;5034673;28;20236;-77
2021/07/22 02:30:09;;;;;;;9.60;8.87;;;;;;;17.97;79.08;101218.06;5034883;28;20204;-77
2021/07/22 02:32:36;;;;;;;9.87;8.97;;;;;;;17.99;79.25;101215.34;5035072;28;20203;-77
2021/07/22 02:35:02;;;;;;;10.53;9.63;;;;;;;18.00;79.17;101225.03;5034621;28;20588;-77
2021/07/22 02:37:28;;;;;;;10.40;9.60;;;;;;;17.97;78.61;101248.91;5035195;28;20279;-77
2021/07/22 02:39:55;;;;;;;11.50;10.40;;;;;;;17.69;79.80;101210.25;5035305;28;20207;-77
2021/07/22 02:42:21;;;;;;;10.30;9.50;;;;;;;17.76;79.74;101195.91;5034775;28;20278;-77
2021/07/22 02:44:47;;;;;;;10.27;9.47;;;;;;;17.83;79.81;101200.06;5034985;28;20215;-76
2021/07/22 02:47:15;;;;;;;9.83;8.80;;;;;;;17.89;79.71;101206.91;5035031;28;20246;-76
2021/07/22 02:49:42;;;;;;;9.53;8.73;;;;;;;17.90;79.83;101200.72;5035109;28;20202;-77
2021/07/22 02:52:08;;;;;;;9.87;9.13;;;;;;;17.94;79.54;101223.47;5034640;28;20732;-77
2021/07/22 02:54:35;;;;;;;9.90;9.00;;;;;;;17.96;79.20;101226.91;5035069;28;20208;-77
2021/07/22 02:57:02;;;;;;;10.33;9.43;;;;;;;17.77;80.15;101197.63;5030445;28;20307;-76
2021/07/22 02:59:28;;;;;;;11.40;10.47;;;;;;;17.61;80.98;101173.56;5030414;28;20207;-77
2021/07/22 03:01:55;;;;;;;11.93;11.00;;;;;;;17.53;81.59;101146.59;5034814;28;20239;-76
2021/07/22 03:04:22;;;;;;;11.40;10.40;;;;;;;17.61;81.31;101157.72;5034661;28;20211;-77
2021/07/22 03:06:49;;;;;;;10.80;9.63;;;;;;;17.68;81.12;101168.94;5034946;28;20230;-76
2021/07/22 03:09:15;;;;;;;10.27;9.27;;;;;;;17.78;81.28;101164.16;5034610;28;20238;-77
2021/07/22 03:11:42;;;;;;;10.83;9.93;;;;;;;17.78;81.64;101165.03;5034664;28;20588;-78
2021/07/22 03:14:08;;;;;;;10.80;9.83;;;;;;;17.82;81.29;101156.06;5034246;28;20215;-77
2021/07/22 03:16:34;;;;;;;12.70;10.40;;;;;;;17.86;81.47;101160.34;5034660;28;20271;-77
2021/07/22 03:19:01;;;;;;;10.50;9.70;;;;;;;17.90;81.13;101182.25;5034390;28;20207;-77
2021/07/22 03:21:28;;;;;;;11.53;10.70;;;;;;;17.92;80.75;101192.72;5034454;28;20277;-77
2021/07/22 03:23:55;;;;;;;10.90;9.90;;;;;;;17.91;80.81;101193.66;5033807;28;20686;-77
2021/07/22 03:26:21;;;;;;;12.50;11.40;;;;;;;17.55;81.20;101189.63;5034283;28;20262;-77
2021/07/22 03:28:48;;;;;;;12.33;11.17;;;;;;;17.67;81.12;101175.97;5034414;28;20211;-77
2021/07/22 03:31:14;;;;;;;11.20;10.30;;;;;;;17.73;81.56;101164.34;5034295;28;20207;-77
2021/07/22 03:33:40;;;;;;;11.40;10.37;;;;;;;17.69;81.39;101168.00;5034046;28;20258;-77
2021/07/22 03:36:07;;;;;;;11.20;10.30;;;;;;;17.52;81.80;101152.81;5034065;28;20210;-78
2021/07/22 03:38:35;;;;;;;12.43;11.43;;;;;;;17.40;82.01;101146.19;5034375;28;20234;-77
2021/07/22 03:41:01;;;;;;;12.20;11.03;;;;;;;17.32;82.11;101145.56;5033759;28;20219;-77
2021/07/22 03:43:27;;;;;;;11.30;10.40;;;;;;;17.41;82.34;101141.75;5034021;28;20211;-77
2021/07/22 03:45:58;;;;;;;11.90;10.90;;;;;;;17.30;82.51;101139.50;5034243;28;20206;-77
2021/07/22 03:48:24;;;;;;;13.83;12.03;;;;;;;17.15;83.35;101109.25;5034124;28;20517;-77
2021/07/22 03:50:51;;;;;;;12.00;11.00;;;;;;;17.06;83.93;101083.19;5033776;28;20280;-78
2021/07/22 03:53:17;;;;;;;13.23;12.07;;;;;;;17.05;84.00;101086.75;5033519;28;20202;-77
2021/07/22 03:55:45;;;;;;;11.67;10.67;;;;;;;16.96;85.15;101050.16;5033641;28;20278;-77
2021/07/22 03:58:11;;;;;;;12.43;11.30;;;;;;;16.87;85.68;101033.75;5025556;28;20227;-77
2021/07/22 04:00:38;;;;;;;11.93;10.80;;;;;;;16.98;85.75;101028.06;5034045;28;20203;-77
2021/07/22 04:03:05;;;;;;;12.77;11.67;;;;;;;17.03;85.28;101046.38;5033298;28;20229;-77
2021/07/22 04:05:31;;;;;;;12.70;11.60;;;;;;;16.87;86.71;101014.44;5033391;28;20656;-76
2021/07/22 04:07:58;;;;;;;13.67;12.33;;;;;;;16.77;87.45;100989.25;5033494;28;20226;-76
2021/07/22 04:10:26;;;;;;;12.17;11.07;;;;;;;16.83;87.24;100989.94;5033802;28;20209;-78
2021/07/22 04:12:55;;;;;;;11.20;10.20;;;;;;;16.87;87.17;101002.09;5033699;28;20260;-78
2021/07/22 04:15:23;;;;;;;12.47;11.37;;;;;;;16.83;86.39;101028.66;5033959;28;20211;-78
2021/07/22 04:17:49;;;;;;;12.27;10.87;;;;;;;16.87;86.79;101015.28;5033598;28;20325;-78
2021/07/22 04:20:16;;;;;;;12.53;11.50;;;;;;;16.84;85.83;101038.25;5033003;28;20211;-77
2021/07/22 04:22:42;;;;;;;12.10;10.97;;;;;;;16.88;86.69;101022.25;5032487;28;20226;-77
2021/07/22 04:25:10;;;;;;;12.17;10.93;;;;;;;16.87;87.14;101017.06;5033051;28;20210;-77
2021/07/22 04:27:36;;;;;;;12.70;11.63;;;;;;;16.92;86.19;101044.13;5024514;28;20241;-77
2021/07/22 04:30:05;;;;;;;11.80;10.70;;;;;;;17.01;87.29;101013.94;5032078;28;20257;-77
2021/07/22 04:32:32;;;;;;;11.30;10.10;;;;;;;17.07;87.14;101009.28;5032653;28;20202;-77
2021/07/22 04:34:58;;;;;;;13.80;11.07;;;;;;;17.11;86.77;101019.75;5032673;28;20256;-78
2021/07/22 04:37:24;;;;;;;12.07;11.00;;;;;;;17.19;86.64;101025.59;5032407;28;20717;-77
2021/07/22 04:39:51;;;;;;;12.03;11.00;;;;;;;17.04;84.74;101098.22;5032832;28;20674;-77
2021/07/22 04:42:17;;;;;;;11.87;10.97;;;;;;;16.96;85.40;101092.34;5032519;28;20646;-77
2021/07/22 04:44:43;;;;;;;12.27;11.17;;;;;;;16.89;85.92;101070.63;5032835;28;20209;-78
2021/07/22 04:47:11;;;;;;;11.80;10.80;;;;;;;16.82;86.27;101053.28;5032593;28;20285;-77
2021/07/22 04:49:37;;;;;;;12.73;11.57;;;;;;;16.81;86.85;101041.00;5032447;28;20214;-78
2021/07/22 04:52:04;;;;;;;12.93;11.73;;;;;;;16.74;86.85;101032.41;5032228;28;20202;-78
2021/07/22 04:54:31;;;;;;;13.37;11.97;;;;;;;16.71;87.17;101027.25;5032718;28;20217;-78
2021/07/22 04:56:57;;;;;;;12.53;11.50;;;;;;;16.65;87.65;101015.16;5029262;28;20281;-78
2021/07/22 04:59:24;;;;;;;12.87;11.83;;;;;;;16.64;88.23;100997.59;5028161;28;20202;-77
2021/07/22 05:01:50;;;;;;;13.00;11.90;;;;;;;16.61;88.30;100992.47;5032163;28;20231;-77
2021/07/22 05:04:18;;;;;;;12.33;11.13;;;;;;;16.60;88.70;100979.31;5032568;28;20206;-78
2021/07/22 05:06:45;;;;;;;12.80;11.50;;;;;;;16.72;88.45;100985.94;5032785;28;20237;-78
2021/07/22 05:09:11;;;;;;;13.27;12.00;;;;;;;16.86;87.95;101002.16;5032814;28;20217;-78
2021/07/22 05:11:38;;;;;;;12.50;11.40;;;;;;;16.85;87.73;101017.13;5032302;28;20213;-78
2021/07/22 05:14:04;;;;;;;12.10;11.10;;;;;;;16.97;87.52;101022.88;5032546;28;20260;-77
2021/07/22 05:16:30;;;;;;;11.83;10.73;;;;;;;17.11;86.98;101044.31;5032306;28;20206;-77
2021/07/22 05:18:57;;;;;;;13.57;12.37;;;;;;;17.06;86.33;101064.72;5032358;28;20202;-77
2021/07/22 05:21:24;;;;;;;13.60;12.30;;;;;;;16.93;86.85;101051.13;5032428;28;20210;-76
2021/07/22 05:23:51;;;;;;;13.20;11.83;;;;;;;16.93;87.32;101037.09;5032482;28;20259;-78
2021/07/22 05:26:17;;;;;;;12.90;11.80;;;;;;;16.90;87.77;101016.09;5032166;28;20217;-76
2021/07/22 05:28:44;;;;;;;13.47;12.37;;;;;;;16.94;87.82;101018.56;5030563;28;20225;-77
2021/07/22 05:31:12;;;;;;;14.03;12.73;;;;;;;16.99;87.68;101027.16;5033589;28;20194;-77
2021/07/22 05:33:40;;;;;;;13.00;12.00;;;;;;;17.09;87.28;101037.41;5033918;28;20201;-78
2021/07/22 05:36:08;;;;;;;12.90;11.70;;;;;;;17.18;87.14;101059.00;5037017;28;20233;-78
2021/07/22 05:38:38;;;;;;;12.13;11.07;;;;;;;17.30;86.57;101080.59;5035145;28;20231;-78
2021/07/22 05:41:05;;;;;;;13.60;12.40;;;;;;;17.43;85.94;101101.19;5037564;28;20207;-78
2021/07/22 05:43:32;;;;;;;12.57;11.57;;;;;;;17.55;85.31;101126.28;5037814;28;20220;-79
2021/07/22 05:45:59;;;;;;;15.87;12.53;;;;;;;17.40;85.79;101114.50;5041458;28;20203;-79
2021/07/22 05:48:25;;;;;;;13.93;12.73;;;;;;;17.06;87.24;101075.28;5038103;28;20229;-78
2021/07/22 05:50:52;;;;;;;13.27;12.07;;;;;;;17.06;87.49;101043.63;5033515;28;20202;-79
2021/07/22 05:53:19;;;;;;;12.70;11.60;;;;;;;17.27;87.36;101050.75;5034059;28;20208;-79
2021/07/22 05:55:47;;;;;;;13.93;12.83;;;;;;;17.31;87.10;101067.34;5034326;28;20195;-79
2021/07/22 05:58:13;;;;;;;16.40;14.63;;;;;;;17.33;86.58;101093.69;5033418;28;20230;-78
2021/07/22 06:00:39;;;;;;;14.90;13.47;;;;;;;17.23;87.02;101079.97;5035030;28;20206;-78
2021/07/22 06:03:06;;;;;;;16.93;14.90;;;;;;;17.03;88.22;101043.75;5034711;28;20231;-79
2021/07/22 06:05:33;;;;;;;16.07;14.47;;;;;;;17.09;88.67;101027.69;5033467;28;20546;-79
2021/07/22 06:08:01;;;;;;;15.23;13.73;;;;;;;17.30;88.26;101041.00;5035251;28;20247;-80
2021/07/22 06:10:27;;;;;;;15.87;14.27;;;;;;;17.43;87.46;101060.75;5030291;28;20631;-79
2021/07/22 06:12:55;;;;;;;16.97;15.67;;;;;;;17.34;87.75;101069.00;5032942;28;20194;-78
2021/07/22 06:15:22;;;;;;;17.70;15.97;;;;;;;17.27;88.61;101036.72;5033739;28;20701;-79
2021/07/22 06:17:49;;;;;;;18.03;16.23;;;;;;;17.21;88.81;101037.78;5031143;28;20219;-79
2021/07/22 06:20:16;;;;;;;17.67;16.27;;;;;;;17.22;89.23;101020.19;5033250;28;20206;-79
2021/07/22 06:22:44;;;;;;;18.10;16.40;;;;;;;17.24;89.20;101019.22;5032370;28;20226;-78
2021/07/22 06:25:11;;;;;;;17.53;16.07;;;;;;;17.39;88.79;101038.88;5032922;28;20669;-78
2021/07/22 06:27:37;;;;;;;17.40;16.00;;;;;;;17.43;88.50;101048.41;5032758;28;20701;-78
2021/07/22 06:30:07;;;;;;;18.10;16.63;;;;;;;17.49;88.23;101054.38;5033206;28;20303;-77
2021/07/22 06:32:33;;;;;;;17.80;16.30;;;;;;;17.61;88.26;101057.41;5032496;28;20198;-79
2021/07/22 06:34:59;;;;;;;17.97;16.23;;;;;;;17.65;87.00;101111.81;5031913;28;20616;-78
2021/07/22 06:37:26;;;;;;;16.53;15.13;;;;;;;17.86;87.08;101112.81;5032112;28;20712;-77
2021/07/22 06:39:52;;;;;;;17.77;16.13;;;;;;;17.76;86.75;101119.34;5032120;28;20206;-78
2021/07/22 06:42:19;;;;;;;18.73;17.13;;;;;;;18.00;86.04;101132.56;5031004;28;20682;-77
2021/07/22 06:44:45;;;;;;;17.67;16.17;;;;;;;18.11;84.67;101188.47;5033257;28;20249;-78
2021/07/22 06:47:13;;;;;;;18.40;16.53;;;;;;;18.26;84.32;101211.66;5033198;28;20230;-79
2021/07/22 06:49:39;;;;;;;17.23;15.93;;;;;;;18.33;83.42;101244.00;5033359;28;20203;-78
2021/07/22 06:52:06;;;;;;;17.10;15.50;;;;;;;18.43;83.31;101244.50;5033414;28;20199;-79
2021/07/22 06:54:33;;;;;;;17.40;16.03;;;;;;;18.55;82.73;101259.91;5036750;28;20199;-80
2021/07/22 06:56:59;;;;;;;18.57;15.57;;;;;;;18.63;82.24;101279.00;5035402;28;20229;-79
2021/07/22 06:59:26;;;;;;;17.13;15.73;;;;;;;18.66;81.74;101302.66;5033809;28;20212;-78
2021/07/22 07:01:52;;;;;;;17.73;16.10;;;;;;;18.84;81.91;101292.31;5037968;28;20203;-77
2021/07/22 07:04:20;;;;;;;16.60;14.90;;;;;;;18.66;81.91;101288.56;5036730;28;20290;-77
2021/07/22 07:06:46;;;;;;;15.87;14.57;;;;;;;18.81;81.91;101292.41;5036391;28;20307;-78
2021/07/22 07:09:13;;;;;;;16.40;15.10;;;;;;;18.95;81.12;101323.63;5035980;28;20282;-79
2021/07/22 07:11:39;;;;;;;16.93;15.33;;;;;;;19.09;79.65;101383.94;5035916;28;20208;-79
2021/07/22 07:14:05;;;;;;;16.77;15.47;;;;;;;19.01;79.65;101389.56;5036719;28;20197;-79
2021/07/22 07:16:32;;;;;;;15.90;14.60;;;;;;;19.03;80.36;101353.31;5039575;28;20231;-80
2021/07/22 07:18:58;;;;;;;15.93;14.67;;;;;;;19.19;79.68;101374.72;5037217;28;20203;-79
2021/07/22 07:21:26;;;;;;;18.17;16.67;;;;;;;19.27;78.79;101406.19;5039102;28;20233;-80
2021/07/22 07:23:52;;;;;;;17.27;15.57;;;;;;;19.24;78.53;101425.69;5039334;28;20223;-80
2021/07/22 07:26:18;;;;;;;88.53;21.03;;;;;;;19.12;78.93;101408.50;5040111;28;20207;-79
2021/07/22 07:28:45;;;;;;;51.77;19.27;;;;;;;19.25;79.04;101401.81;5039861;28;20233;-79
2021/07/22 07:31:11;;;;;;;60.80;21.37;;;;;;;18.85;78.64;101424.53;5040390;28;20206;-81
2021/07/22 07:33:37;;;;;;;75.30;22.67;;;;;;;18.84;79.84;101367.25;5038725;28;20205;-80
2021/07/22 07:36:04;;;;;;;40.27;18.10;;;;;;;18.97;79.77;101359.69;5039733;28;20204;-80
2021/07/22 07:38:32;;;;;;;25.97;17.50;;;;;;;18.95;78.89;101403.00;5037808;28;20286;-79
2021/07/22 07:40:58;;;;;;;18.87;16.80;;;;;;;18.73;79.67;101374.72;5036011;28;20224;-77
2021/07/22 07:43:25;;;;;;;17.70;15.63;;;;;;;18.98;80.12;101357.91;5035678;28;20284;-79
2021/07/22 07:45:51;;;;;;;19.70;15.80;;;;;;;18.94;78.87;101393.34;5038170;28;20206;-80
2021/07/22 07:48:17;;;;;;;21.00;17.37;;;;;;;18.74;78.71;101418.75;5036155;28;20283;-78
2021/07/22 07:50:44;;;;;;;19.07;15.60;;;;;;;19.00;79.31;101393.97;5034262;28;20209;-77
2021/07/22 07:53:11;;;;;;;18.33;16.60;;;;;;;19.09;78.71;101410.41;5034401;28;20208;-78
2021/07/22 07:55:39;;;;;;;19.67;17.23;;;;;;;18.99;78.85;101404.63;5036446;28;20216;-81
2021/07/22 07:58:06;;;;;;;18.37;16.57;;;;;;;19.12;80.44;101344.13;5037565;28;20221;-79
2021/07/22 08:00:32;;;;;;;16.90;15.57;;;;;;;19.41;79.15;101386.16;5037271;28;20230;-81
2021/07/22 08:02:59;;;;;;;18.27;16.33;;;;;;;19.50;78.40;101427.28;5038262;28;20301;-81
2021/07/22 08:05:25;;;;;;;17.47;15.80;;;;;;;19.66;78.09;101435.47;5038083;28;20294;-80
2021/07/22 08:07:52;;;;;;;18.57;16.67;;;;;;;19.75;77.44;101455.47;5036560;28;20251;-79
2021/07/22 08:10:18;;;;;;;18.43;17.03;;;;;;;19.84;77.27;101466.56;5036423;28;20210;-78
2021/07/22 08:12:46;;;;;;;17.47;15.70;;;;;;;19.99;77.28;101461.53;5036227;28;20247;-79
2021/07/22 08:15:14;;;;;;;18.80;17.23;;;;;;;19.79;76.04;101512.72;5037085;28;20236;-79
2021/07/22 08:17:41;;;;;;;19.87;18.07;;;;;;;19.88;76.68;101483.19;5035543;28;20228;-79
2021/07/22 08:20:10;;;;;;;18.20;15.87;;;;;;;19.99;75.74;101517.19;5037917;28;20206;-82
2021/07/22 08:22:38;;;;;;;17.93;16.33;;;;;;;20.07;75.36;101524.84;5037546;28;20673;-79
2021/07/22 08:25:05;;;;;;;20.53;18.47;;;;;;;20.03;75.12;101537.34;5037022;28;20739;-79
2021/07/22 08:27:33;;;;;;;19.67;17.87;;;;;;;19.88;74.47;101569.75;5037394;28;20295;-78
2021/07/22 08:30:01;;;;;;;21.27;19.20;;;;;;;19.62;76.21;101495.69;5026704;28;20197;-78
2021/07/22 08:32:27;;;;;;;19.40;17.73;;;;;;;19.81;75.27;101532.06;5033695;28;20213;-77
2021/07/22 08:34:53;;;;;;;71.73;22.63;;;;;;;19.57;75.65;101528.56;5035112;28;20216;-78
2021/07/22 08:37:20;;;;;;;18.73;16.93;;;;;;;19.75;75.06;101532.31;5036796;28;20228;-79
2021/07/22 08:39:48;;;;;;;17.60;15.87;;;;;;;19.78;74.40;101551.59;5036583;28;20213;-78
2021/07/22 08:42:15;;;;;;;20.00;17.37;;;;;;;20.02;74.02;101570.09;5035444;28;20201;-77
2021/07/22 08:44:42;;;;;;;19.43;17.60;;;;;;;19.91;74.19;101573.16;5035594;28;20714;-78
2021/07/22 08:47:11;;;;;;;18.43;16.10;;;;;;;20.09;74.11;101573.34;5035742;28;20287;-77
2021/07/22 08:49:39;;;;;;;18.87;16.97;;;;;;;20.35;74.37;101556.38;5034143;28;20218;-78
2021/07/22 08:52:07;;;;;;;18.70;17.07;;;;;;;20.14;71.99;101651.78;5033429;28;20209;-77
2021/07/22 08:54:34;;;;;;;18.83;16.90;;;;;;;20.27;72.51;101607.06;5034363;28;20663;-78
2021/07/22 08:57:01;;;;;;;17.90;16.30;;;;;;;20.38;72.12;101635.81;5033483;28;20237;-77
2021/07/22 08:59:30;;;;;;;18.83;15.67;;;;;;;20.56;71.57;101661.56;5026828;28;20202;-79
2021/07/22 09:01:57;;;;;;;19.43;16.53;;;;;;;20.86;70.63;101684.28;5034943;28;20591;-79
2021/07/22 09:04:25;;;;;;;17.27;15.73;;;;;;;20.76;69.23;101744.84;5035744;28;20232;-76
2021/07/22 09:06:51;;;;;;;16.97;15.60;;;;;;;20.59;68.90;101769.38;5034787;28;20229;-79
2021/07/22 09:09:18;;;;;;;18.20;16.70;;;;;;;20.65;68.89;101762.97;5036716;28;20212;-78
2021/07/22 09:11:54;;;;;;;18.57;16.93;;;;;;;20.31;68.88;101774.88;5034121;28;20212;-77
2021/07/22 09:14:21;;;;;;;16.67;15.33;;;;;;;20.42;70.04;101709.88;5036799;28;20268;-79
2021/07/22 09:16:47;;;;;;;16.73;15.13;;;;;;;20.69;69.70;101722.97;5035054;28;20752;-78
2021/07/22 09:19:33;;;;;;;17.30;15.80;;;;;;;20.57;69.35;101744.66;5035019;28;20217;-78
2021/07/22 09:21:59;;;;;;;17.23;15.57;;;;;;;20.68;69.02;101754.91;5034321;28;20220;-77
2021/07/22 09:24:26;;;;;;;16.73;15.53;;;;;;;20.59;69.70;101742.84;5035689;28;20290;-77
2021/07/22 09:26:53;;;;;;;18.23;16.50;;;;;;;20.30;69.58;101733.38;5031354;28;20733;-75
2021/07/22 09:29:20;;;;;;;16.27;14.87;;;;;;;20.38;69.50;101716.22;5032686;28;20204;-79
2021/07/22 09:31:47;;;;;;;16.13;14.73;;;;;;;20.65;69.65;101721.38;5035882;28;20227;-78
2021/07/22 09:34:16;;;;;;;16.80;15.33;;;;;;;20.44;69.09;101755.78;5033099;28;20243;-77
2021/07/22 09:36:44;;;;;;;15.60;14.30;;;;;;;20.48;69.26;101745.06;5034891;28;20265;-78
2021/07/22 09:39:18;;;;;;;17.30;15.47;;;;;;;20.21;69.25;101747.84;5036377;28;20205;-78
2021/07/22 09:41:45;;;;;;;15.73;14.33;;;;;;;20.11;70.01;101723.47;5037279;28;20213;-77
2021/07/22 09:44:27;;;;;;;15.40;14.10;;;;;;;20.20;71.00;101667.44;5033812;28;20236;-77
2021/07/22 09:46:54;;;;;;;14.83;13.50;;;;;;;20.46;70.35;101692.06;5033621;28;20326;-78
2021/07/22 09:49:20;;;;;;;14.60;13.40;;;;;;;20.59;70.33;101690.69;5033480;28;20247;-78
2021/07/22 09:51:48;;;;;;;14.77;13.60;;;;;;;20.63;68.96;101758.59;5032558;28;20685;-77
2021/07/22 09:54:14;;;;;;;15.07;13.60;;;;;;;20.30;68.83;101776.66;5030648;28;20639;-74
2021/07/22 09:56:41;;;;;;;14.73;13.43;;;;;;;20.57;69.17;101748.22;5030031;28;20220;-75
2021/07/22 09:59:09;;;;;;;13.90;12.70;;;;;;;20.81;69.58;101734.88;5027992;28;20202;-78
2021/07/22 10:01:42;;;;;;;13.40;12.27;;;;;;;21.00;69.01;101735.84;5033363;28;20672;-76
2021/07/22 10:04:10;;;;;;;14.13;12.93;;;;;;;21.15;68.47;101773.28;5033824;28;20229;-79
2021/07/22 10:06:38;;;;;;;13.53;12.37;;;;;;;21.09;68.22;101792.13;5032906;28;20565;-80
2021/07/22 10:09:07;;;;;;;14.23;12.97;;;;;;;20.94;68.64;101772.41;5032308;28;20214;-77
2021/07/22 10:11:35;;;;;;;14.53;13.33;;;;;;;21.06;67.16;101813.53;5034793;28;20205;-79
2021/07/22 10:14:03;;;;;;;16.07;14.57;;;;;;;20.42;67.57;101810.66;5031905;28;20203;-76
2021/07/22 10:16:30;;;;;;;14.90;13.57;;;;;;;20.53;68.44;101761.63;5031911;28;20210;-78
2021/07/22 10:18:59;;;;;;;14.20;12.90;;;;;;;20.64;68.20;101735.59;5036512;28;20274;-79
2021/07/22 10:21:26;;;;;;;14.93;13.37;;;;;;;20.77;68.89;101739.47;5036150;28;20216;-80
2021/07/22 10:23:53;;;;;;;15.53;14.07;;;;;;;20.78;67.47;101807.53;5036248;28;20240;-78
2021/07/22 10:26:22;;;;;;;15.50;14.20;;;;;;;20.79;67.53;101796.00;5034427;28;20209;-79
2021/07/22 10:28:50;;;;;;;15.03;13.77;;;;;;;20.84;67.90;101777.22;5028024;28;20283;-77
2021/07/22 10:31:17;;;;;;;13.83;12.73;;;;;;;20.90;67.89;101769.00;5037099;28;20212;-79
2021/07/22 10:33:46;;;;;;;13.90;12.83;;;;;;;20.87;66.66;101800.13;5039948;28;20270;-80
2021/07/22 10:36:13;;;;;;;14.33;12.93;;;;;;;20.90;67.22;101790.25;5040481;28;20252;-79
2021/07/22 10:38:43;;;;;;;15.70;14.17;;;;;;;20.97;66.32;101812.09;5039898;28;20243;-79
2021/07/22 10:41:30;;;;;;;14.70;13.53;;;;;;;21.14;67.38;101780.41;5039822;28;20213;-79
2021/07/22 10:43:58;;;;;;;15.67;13.93;;;;;;;20.80;67.06;101804.81;5034816;28;20232;-78
2021/07/22 10:46:24;;;;;;;14.40;13.20;;;;;;;21.02;66.73;101784.44;5039313;28;20221;-78
2021/07/22 10:48:51;;;;;;;13.63;12.63;;;;;;;20.97;66.91;101794.41;5039093;28;20213;-78
2021/07/22 10:51:18;;;;;;;13.93;12.83;;;;;;;21.03;67.79;101759.63;5037723;28;20256;-79
2021/07/22 10:53:50;;;;;;;13.90;12.70;;;;;;;21.22;67.74;101749.06;5037290;28;20193;-79
2021/07/22 10:56:19;;;;;;;15.70;14.10;;;;;;;21.38;66.85;101772.34;5038496;28;20205;-79
2021/07/22 10:58:51;;;;;;;13.23;11.97;;;;;;;21.37;66.06;101821.94;5038420;28;20225;-78
2021/07/22 11:01:54;;;;;;;15.57;14.03;;;;;;;21.06;65.65;101835.63;5032002;28;20708;-76
2021/07/22 11:04:43;;;;;;;14.80;13.37;;;;;;;21.09;66.23;101808.06;5036400;28;20236;-79
2021/07/22 11:07:31;;;;;;;15.07;13.67;;;;;;;21.22;65.81;101817.28;5038639;28;20248;-79
2021/07/22 11:09:59;;;;;;;14.73;13.37;;;;;;;21.48;65.85;101805.56;5032821;28;20256;-79
2021/07/22 11:12:56;;;;;;;13.70;11.90;;;;;;;21.67;65.04;101839.34;5038740;28;20209;-78